sensor_id;sensor_type;location;lat;lon;timestamp;P1;durP1;ratioP1;P2;durP2;ratioP2
16228;SDS011;8222;51.462;12.630;2023-12-04T00:01:20;19.15;;;12.82;;
16228;SDS011;8222;51.462;12.630;2023-12-04T00:03:52;19.88;;;14.18;;
16228;SDS011;8222;51.462;12.630;2023-12-04T00:06:21;13.13;;;9.97;;
16228;SDS011;8222;51.462;12.630;2023-12-04T00:08:48;15.27;;;9.50;;
16228;SDS011;8222;51.462;12.630;2023-12-04T00:11:14;19.27;;;13.53;;
16228;SDS011;8222;51.462;12.630;2023-12-04T00:13:40;22.58;;;15.88;;
16228;SDS011;8222;51.462;12.630;2023-12-04T00:16:08;22.10;;;15.83;;
16228;SDS011;8222;51.462;12.630;2023-12-04T00:18:34;14.87;;;11.67;;
16228;SDS011;8222;51.462;12.630;2023-12-04T00:20:59;16.07;;;10.37;;
16228;SDS011;8222;51.462;12.630;2023-12-04T00:23:28;17.35;;;12.20;;
16228;SDS011;8222;51.462;12.630;2023-12-04T00:25:54;13.77;;;9.63;;
16228;SDS011;8222;51.462;12.630;2023-12-04T00:28:20;14.33;;;9.30;;
16228;SDS011;8222;51.462;12.630;2023-12-04T00:30:46;20.83;;;14.45;;
16228;SDS011;8222;51.462;12.630;2023-12-04T00:33:14;24.30;;;16.50;;
16228;SDS011;8222;51.462;12.630;2023-12-04T00:35:42;14.37;;;11.03;;
16228;SDS011;8222;51.462;12.630;2023-12-04T00:38:10;19.77;;;14.83;;
16228;SDS011;8222;51.462;12.630;2023-12-04T00:40:36;18.33;;;12.63;;
16228;SDS011;8222;51.462;12.630;2023-12-04T00:43:04;11.93;;;10.10;;
16228;SDS011;8222;51.462;12.630;2023-12-04T00:45:29;23.08;;;15.07;;
16228;SDS011;8222;51.462;12.630;2023-12-04T00:47:57;16.77;;;11.75;;
16228;SDS011;8222;51.462;12.630;2023-12-04T00:50:25;22.35;;;15.90;;
16228;SDS011;8222;51.462;12.630;2023-12-04T00:52:53;20.88;;;14.90;;
16228;SDS011;8222;51.462;12.630;2023-12-04T00:55:21;19.88;;;14.10;;
16228;SDS011;8222;51.462;12.630;2023-12-04T00:57:46;18.20;;;11.80;;
16228;SDS011;8222;51.462;12.630;2023-12-04T01:00:15;15.27;;;12.13;;
16228;SDS011;8222;51.462;12.630;2023-12-04T01:02:43;19.83;;;13.73;;
16228;SDS011;8222;51.462;12.630;2023-12-04T01:05:11;11.87;;;10.27;;
16228;SDS011;8222;51.462;12.630;2023-12-04T01:07:37;21.85;;;14.05;;
16228;SDS011;8222;51.462;12.630;2023-12-04T01:10:10;22.77;;;14.23;;
16228;SDS011;8222;51.462;12.630;2023-12-04T01:12:36;15.67;;;10.57;;
16228;SDS011;8222;51.462;12.630;2023-12-04T01:15:04;16.67;;;11.90;;
16228;SDS011;8222;51.462;12.630;2023-12-04T01:17:30;16.30;;;9.67;;
16228;SDS011;8222;51.462;12.630;2023-12-04T01:19:58;20.17;;;13.60;;
16228;SDS011;8222;51.462;12.630;2023-12-04T01:22:26;18.27;;;9.77;;
16228;SDS011;8222;51.462;12.630;2023-12-04T01:24:54;20.15;;;15.70;;
16228;SDS011;8222;51.462;12.630;2023-12-04T01:27:19;22.70;;;14.85;;
16228;SDS011;8222;51.462;12.630;2023-12-04T01:29:49;21.10;;;14.73;;
16228;SDS011;8222;51.462;12.630;2023-12-04T01:32:15;19.58;;;13.43;;
16228;SDS011;8222;51.462;12.630;2023-12-04T01:34:43;15.63;;;12.10;;
16228;SDS011;8222;51.462;12.630;2023-12-04T01:37:08;19.85;;;14.80;;
16228;SDS011;8222;51.462;12.630;2023-12-04T01:39:34;16.17;;;10.83;;
16228;SDS011;8222;51.462;12.630;2023-12-04T01:42:02;16.23;;;11.40;;
16228;SDS011;8222;51.462;12.630;2023-12-04T01:44:30;17.50;;;13.07;;
16228;SDS011;8222;51.462;12.630;2023-12-04T01:46:56;18.40;;;13.38;;
16228;SDS011;8222;51.462;12.630;2023-12-04T01:49:21;13.23;;;9.57;;
16228;SDS011;8222;51.462;12.630;2023-12-04T01:51:51;12.40;;;9.23;;
16228;SDS011;8222;51.462;12.630;2023-12-04T01:54:22;13.87;;;10.27;;
16228;SDS011;8222;51.462;12.630;2023-12-04T01:56:48;20.77;;;13.70;;
16228;SDS011;8222;51.462;12.630;2023-12-04T01:59:16;11.87;;;9.03;;
16228;SDS011;8222;51.462;12.630;2023-12-04T02:04:47;17.20;;;12.45;;
16228;SDS011;8222;51.462;12.630;2023-12-04T02:07:17;19.27;;;14.40;;
16228;SDS011;8222;51.462;12.630;2023-12-04T02:09:46;20.80;;;14.33;;
16228;SDS011;8222;51.462;12.630;2023-12-04T02:12:11;17.25;;;11.88;;
16228;SDS011;8222;51.462;12.630;2023-12-04T02:14:37;20.47;;;13.27;;
16228;SDS011;8222;51.462;12.630;2023-12-04T02:17:05;19.40;;;13.02;;
16228;SDS011;8222;51.462;12.630;2023-12-04T02:19:35;15.60;;;10.90;;
16228;SDS011;8222;51.462;12.630;2023-12-04T02:22:01;13.10;;;9.60;;
16228;SDS011;8222;51.462;12.630;2023-12-04T02:24:27;14.47;;;8.63;;
16228;SDS011;8222;51.462;12.630;2023-12-04T02:26:55;20.02;;;13.30;;
16228;SDS011;8222;51.462;12.630;2023-12-04T02:29:29;16.40;;;9.63;;
16228;SDS011;8222;51.462;12.630;2023-12-04T02:32:01;12.80;;;8.38;;
16228;SDS011;8222;51.462;12.630;2023-12-04T02:34:29;20.55;;;13.35;;
16228;SDS011;8222;51.462;12.630;2023-12-04T02:36:57;14.37;;;9.47;;
16228;SDS011;8222;51.462;12.630;2023-12-04T02:39:24;11.10;;;8.40;;
16228;SDS011;8222;51.462;12.630;2023-12-04T02:41:54;16.27;;;8.17;;
16228;SDS011;8222;51.462;12.630;2023-12-04T02:44:20;11.03;;;8.67;;
16228;SDS011;8222;51.462;12.630;2023-12-04T02:46:46;17.53;;;12.57;;
16228;SDS011;8222;51.462;12.630;2023-12-04T02:49:12;18.35;;;13.10;;
16228;SDS011;8222;51.462;12.630;2023-12-04T02:51:40;22.27;;;13.93;;
16228;SDS011;8222;51.462;12.630;2023-12-04T02:54:08;12.57;;;10.50;;
16228;SDS011;8222;51.462;12.630;2023-12-04T02:56:34;13.20;;;9.57;;
16228;SDS011;8222;51.462;12.630;2023-12-04T02:59:00;17.30;;;12.02;;
16228;SDS011;8222;51.462;12.630;2023-12-04T03:01:25;13.10;;;9.73;;
16228;SDS011;8222;51.462;12.630;2023-12-04T03:03:53;15.03;;;8.53;;
16228;SDS011;8222;51.462;12.630;2023-12-04T03:06:19;11.63;;;9.03;;
16228;SDS011;8222;51.462;12.630;2023-12-04T03:08:44;17.80;;;12.50;;
16228;SDS011;8222;51.462;12.630;2023-12-04T03:11:10;15.87;;;10.40;;
16228;SDS011;8222;51.462;12.630;2023-12-04T03:13:36;15.00;;;9.30;;
16228;SDS011;8222;51.462;12.630;2023-12-04T03:16:04;10.33;;;6.90;;
16228;SDS011;8222;51.462;12.630;2023-12-04T03:18:30;16.65;;;12.68;;
16228;SDS011;8222;51.462;12.630;2023-12-04T03:20:55;16.23;;;11.33;;
16228;SDS011;8222;51.462;12.630;2023-12-04T03:23:21;12.93;;;8.63;;
16228;SDS011;8222;51.462;12.630;2023-12-04T03:25:47;18.80;;;12.57;;
16228;SDS011;8222;51.462;12.630;2023-12-04T03:28:12;15.83;;;10.03;;
16228;SDS011;8222;51.462;12.630;2023-12-04T03:30:42;18.07;;;13.47;;
16228;SDS011;8222;51.462;12.630;2023-12-04T03:33:10;17.20;;;12.98;;
16228;SDS011;8222;51.462;12.630;2023-12-04T03:35:36;13.20;;;8.97;;
16228;SDS011;8222;51.462;12.630;2023-12-04T03:38:04;18.27;;;12.65;;
16228;SDS011;8222;51.462;12.630;2023-12-04T03:40:29;19.98;;;12.60;;
16228;SDS011;8222;51.462;12.630;2023-12-04T03:42:55;18.90;;;13.30;;
16228;SDS011;8222;51.462;12.630;2023-12-04T03:45:21;16.67;;;10.57;;
16228;SDS011;8222;51.462;12.630;2023-12-04T03:47:46;18.50;;;12.27;;
16228;SDS011;8222;51.462;12.630;2023-12-04T03:50:12;15.67;;;9.93;;
16228;SDS011;8222;51.462;12.630;2023-12-04T03:52:38;18.10;;;12.10;;
16228;SDS011;8222;51.462;12.630;2023-12-04T03:55:04;16.67;;;10.63;;
16228;SDS011;8222;51.462;12.630;2023-12-04T03:57:32;11.43;;;7.37;;
16228;SDS011;8222;51.462;12.630;2023-12-04T03:59:58;17.27;;;12.70;;
16228;SDS011;8222;51.462;12.630;2023-12-04T04:02:24;30.03;;;18.33;;
16228;SDS011;8222;51.462;12.630;2023-12-04T04:04:49;34.08;;;21.73;;
16228;SDS011;8222;51.462;12.630;2023-12-04T04:07:20;21.33;;;15.27;;
16228;SDS011;8222;51.462;12.630;2023-12-04T04:09:45;15.23;;;9.87;;
16228;SDS011;8222;51.462;12.630;2023-12-04T04:12:13;19.02;;;13.77;;
16228;SDS011;8222;51.462;12.630;2023-12-04T04:14:39;18.00;;;12.83;;
16228;SDS011;8222;51.462;12.630;2023-12-04T04:17:05;14.27;;;10.55;;
16228;SDS011;8222;51.462;12.630;2023-12-04T04:19:30;14.53;;;10.23;;
16228;SDS011;8222;51.462;12.630;2023-12-04T04:21:58;19.08;;;13.30;;
16228;SDS011;8222;51.462;12.630;2023-12-04T04:24:28;17.40;;;12.55;;
16228;SDS011;8222;51.462;12.630;2023-12-04T04:26:56;14.40;;;9.20;;
16228;SDS011;8222;51.462;12.630;2023-12-04T04:29:24;16.87;;;11.77;;
16228;SDS011;8222;51.462;12.630;2023-12-04T04:31:52;12.13;;;9.10;;
16228;SDS011;8222;51.462;12.630;2023-12-04T04:34:19;15.17;;;11.40;;
16228;SDS011;8222;51.462;12.630;2023-12-04T04:36:49;11.97;;;9.20;;
16228;SDS011;8222;51.462;12.630;2023-12-04T04:39:14;16.60;;;12.43;;
16228;SDS011;8222;51.462;12.630;2023-12-04T04:41:42;16.83;;;12.75;;
16228;SDS011;8222;51.462;12.630;2023-12-04T04:44:11;17.80;;;13.23;;
16228;SDS011;8222;51.462;12.630;2023-12-04T04:46:37;12.63;;;9.87;;
16228;SDS011;8222;51.462;12.630;2023-12-04T04:49:02;17.95;;;12.23;;
16228;SDS011;8222;51.462;12.630;2023-12-04T04:51:31;17.30;;;11.80;;
16228;SDS011;8222;51.462;12.630;2023-12-04T04:54:01;18.45;;;12.13;;
16228;SDS011;8222;51.462;12.630;2023-12-04T04:56:26;17.17;;;14.40;;
16228;SDS011;8222;51.462;12.630;2023-12-04T04:58:52;24.23;;;18.67;;
16228;SDS011;8222;51.462;12.630;2023-12-04T05:01:18;19.17;;;11.98;;
16228;SDS011;8222;51.462;12.630;2023-12-04T05:03:44;16.27;;;11.37;;
16228;SDS011;8222;51.462;12.630;2023-12-04T05:06:10;18.00;;;13.10;;
16228;SDS011;8222;51.462;12.630;2023-12-04T05:08:40;17.33;;;12.60;;
16228;SDS011;8222;51.462;12.630;2023-12-04T05:11:06;18.57;;;12.70;;
16228;SDS011;8222;51.462;12.630;2023-12-04T05:13:32;16.27;;;11.93;;
16228;SDS011;8222;51.462;12.630;2023-12-04T05:15:57;18.63;;;12.73;;
16228;SDS011;8222;51.462;12.630;2023-12-04T05:18:25;12.57;;;8.97;;
16228;SDS011;8222;51.462;12.630;2023-12-04T05:20:51;17.63;;;12.98;;
16228;SDS011;8222;51.462;12.630;2023-12-04T05:23:21;17.47;;;12.60;;
16228;SDS011;8222;51.462;12.630;2023-12-04T05:25:47;16.23;;;12.10;;
16228;SDS011;8222;51.462;12.630;2023-12-04T05:28:12;17.52;;;12.93;;
16228;SDS011;8222;51.462;12.630;2023-12-04T05:30:38;20.13;;;15.23;;
16228;SDS011;8222;51.462;12.630;2023-12-04T05:33:06;18.85;;;13.07;;
16228;SDS011;8222;51.462;12.630;2023-12-04T05:35:31;16.05;;;11.88;;
16228;SDS011;8222;51.462;12.630;2023-12-04T05:37:59;12.23;;;9.20;;
16228;SDS011;8222;51.462;12.630;2023-12-04T05:40:29;14.13;;;9.87;;
16228;SDS011;8222;51.462;12.630;2023-12-04T05:42:55;13.63;;;10.07;;
16228;SDS011;8222;51.462;12.630;2023-12-04T05:45:23;15.37;;;11.33;;
16228;SDS011;8222;51.462;12.630;2023-12-04T05:47:49;14.90;;;8.73;;
16228;SDS011;8222;51.462;12.630;2023-12-04T05:50:14;17.45;;;11.77;;
16228;SDS011;8222;51.462;12.630;2023-12-04T05:52:40;16.90;;;12.80;;
16228;SDS011;8222;51.462;12.630;2023-12-04T05:55:06;20.50;;;15.38;;
16228;SDS011;8222;51.462;12.630;2023-12-04T05:57:34;24.13;;;18.05;;
16228;SDS011;8222;51.462;12.630;2023-12-04T05:59:59;17.23;;;12.65;;
16228;SDS011;8222;51.462;12.630;2023-12-04T06:02:25;13.97;;;9.17;;
16228;SDS011;8222;51.462;12.630;2023-12-04T06:04:52;16.20;;;11.90;;
16228;SDS011;8222;51.462;12.630;2023-12-04T06:07:18;14.87;;;10.00;;
16228;SDS011;8222;51.462;12.630;2023-12-04T06:09:48;15.05;;;12.15;;
16228;SDS011;8222;51.462;12.630;2023-12-04T06:12:16;15.93;;;11.07;;
16228;SDS011;8222;51.462;12.630;2023-12-04T06:14:44;13.00;;;8.67;;
16228;SDS011;8222;51.462;12.630;2023-12-04T06:17:12;12.38;;;9.40;;
16228;SDS011;8222;51.462;12.630;2023-12-04T06:19:38;14.68;;;11.20;;
16228;SDS011;8222;51.462;12.630;2023-12-04T06:22:04;15.83;;;11.43;;
16228;SDS011;8222;51.462;12.630;2023-12-04T06:24:30;14.15;;;10.82;;
16228;SDS011;8222;51.462;12.630;2023-12-04T06:26:55;12.03;;;8.07;;
16228;SDS011;8222;51.462;12.630;2023-12-04T06:29:24;12.68;;;9.85;;
16228;SDS011;8222;51.462;12.630;2023-12-04T06:31:49;13.95;;;10.80;;
16228;SDS011;8222;51.462;12.630;2023-12-04T06:34:18;12.00;;;7.83;;
16228;SDS011;8222;51.462;12.630;2023-12-04T06:36:46;12.95;;;10.85;;
16228;SDS011;8222;51.462;12.630;2023-12-04T06:39:17;14.65;;;11.25;;
16228;SDS011;8222;51.462;12.630;2023-12-04T06:41:48;14.18;;;11.05;;
16228;SDS011;8222;51.462;12.630;2023-12-04T06:44:16;14.50;;;8.47;;
16228;SDS011;8222;51.462;12.630;2023-12-04T06:46:43;9.80;;;6.90;;
16228;SDS011;8222;51.462;12.630;2023-12-04T06:49:16;13.95;;;10.77;;
16228;SDS011;8222;51.462;12.630;2023-12-04T06:51:45;16.60;;;11.13;;
16228;SDS011;8222;51.462;12.630;2023-12-04T06:54:11;14.68;;;10.05;;
16228;SDS011;8222;51.462;12.630;2023-12-04T06:56:38;14.20;;;10.68;;
16228;SDS011;8222;51.462;12.630;2023-12-04T06:59:04;12.50;;;8.60;;
16228;SDS011;8222;51.462;12.630;2023-12-04T07:01:32;14.00;;;9.55;;
16228;SDS011;8222;51.462;12.630;2023-12-04T07:03:57;9.67;;;6.87;;
16228;SDS011;8222;51.462;12.630;2023-12-04T07:06:23;12.90;;;9.20;;
16228;SDS011;8222;51.462;12.630;2023-12-04T07:08:49;13.70;;;9.73;;
16228;SDS011;8222;51.462;12.630;2023-12-04T07:11:18;11.17;;;7.53;;
16228;SDS011;8222;51.462;12.630;2023-12-04T07:13:43;13.70;;;10.05;;
16228;SDS011;8222;51.462;12.630;2023-12-04T07:16:09;13.60;;;9.33;;
16228;SDS011;8222;51.462;12.630;2023-12-04T07:18:37;12.25;;;9.38;;
16228;SDS011;8222;51.462;12.630;2023-12-04T07:21:02;11.70;;;8.32;;
16228;SDS011;8222;51.462;12.630;2023-12-04T07:23:31;12.05;;;8.88;;
16228;SDS011;8222;51.462;12.630;2023-12-04T07:25:56;12.38;;;9.90;;
16228;SDS011;8222;51.462;12.630;2023-12-04T07:28:26;12.47;;;8.40;;
16228;SDS011;8222;51.462;12.630;2023-12-04T07:30:55;11.40;;;9.20;;
16228;SDS011;8222;51.462;12.630;2023-12-04T07:33:21;12.57;;;9.73;;
16228;SDS011;8222;51.462;12.630;2023-12-04T07:35:49;11.45;;;8.93;;
16228;SDS011;8222;51.462;12.630;2023-12-04T07:38:18;13.18;;;8.70;;
16228;SDS011;8222;51.462;12.630;2023-12-04T07:40:46;10.00;;;8.13;;
16228;SDS011;8222;51.462;12.630;2023-12-04T07:43:12;10.77;;;8.32;;
16228;SDS011;8222;51.462;12.630;2023-12-04T07:45:39;11.02;;;8.38;;
16228;SDS011;8222;51.462;12.630;2023-12-04T07:48:06;10.80;;;8.48;;
16228;SDS011;8222;51.462;12.630;2023-12-04T07:50:31;11.18;;;8.18;;
16228;SDS011;8222;51.462;12.630;2023-12-04T07:53:00;11.75;;;8.20;;
16228;SDS011;8222;51.462;12.630;2023-12-04T07:55:25;9.60;;;6.87;;
16228;SDS011;8222;51.462;12.630;2023-12-04T07:57:51;9.02;;;7.63;;
16228;SDS011;8222;51.462;12.630;2023-12-04T08:00:19;11.00;;;7.57;;
16228;SDS011;8222;51.462;12.630;2023-12-04T08:02:47;9.97;;;6.73;;
16228;SDS011;8222;51.462;12.630;2023-12-04T08:05:14;9.93;;;7.75;;
16228;SDS011;8222;51.462;12.630;2023-12-04T08:07:42;10.40;;;8.32;;
16228;SDS011;8222;51.462;12.630;2023-12-04T08:10:10;7.30;;;5.90;;
16228;SDS011;8222;51.462;12.630;2023-12-04T08:12:36;9.67;;;7.83;;
16228;SDS011;8222;51.462;12.630;2023-12-04T08:15:02;8.90;;;6.85;;
16228;SDS011;8222;51.462;12.630;2023-12-04T08:17:29;6.20;;;5.43;;
16228;SDS011;8222;51.462;12.630;2023-12-04T08:19:57;8.10;;;5.72;;
16228;SDS011;8222;51.462;12.630;2023-12-04T08:22:23;9.23;;;6.70;;
16228;SDS011;8222;51.462;12.630;2023-12-04T08:24:49;6.77;;;5.30;;
16228;SDS011;8222;51.462;12.630;2023-12-04T08:27:18;6.93;;;5.40;;
16228;SDS011;8222;51.462;12.630;2023-12-04T08:29:46;10.48;;;7.85;;
16228;SDS011;8222;51.462;12.630;2023-12-04T08:32:14;7.03;;;5.23;;
16228;SDS011;8222;51.462;12.630;2023-12-04T08:34:43;7.77;;;6.07;;
16228;SDS011;8222;51.462;12.630;2023-12-04T08:37:09;8.18;;;6.88;;
16228;SDS011;8222;51.462;12.630;2023-12-04T08:39:37;11.55;;;7.93;;
16228;SDS011;8222;51.462;12.630;2023-12-04T08:42:05;9.05;;;7.10;;
16228;SDS011;8222;51.462;12.630;2023-12-04T08:44:30;8.70;;;7.22;;
16228;SDS011;8222;51.462;12.630;2023-12-04T08:47:01;9.20;;;7.17;;
16228;SDS011;8222;51.462;12.630;2023-12-04T08:49:29;14.03;;;11.37;;
16228;SDS011;8222;51.462;12.630;2023-12-04T08:51:55;12.40;;;9.97;;
16228;SDS011;8222;51.462;12.630;2023-12-04T08:54:23;9.05;;;8.02;;
16228;SDS011;8222;51.462;12.630;2023-12-04T08:56:51;8.68;;;6.95;;
16228;SDS011;8222;51.462;12.630;2023-12-04T08:59:19;8.68;;;6.85;;
16228;SDS011;8222;51.462;12.630;2023-12-04T09:01:55;8.50;;;5.27;;
16228;SDS011;8222;51.462;12.630;2023-12-04T09:04:23;9.97;;;7.67;;
16228;SDS011;8222;51.462;12.630;2023-12-04T09:06:51;6.57;;;5.87;;
16228;SDS011;8222;51.462;12.630;2023-12-04T09:09:17;8.40;;;7.00;;
16228;SDS011;8222;51.462;12.630;2023-12-04T09:11:45;8.43;;;7.53;;
16228;SDS011;8222;51.462;12.630;2023-12-04T09:14:10;8.77;;;6.72;;
16228;SDS011;8222;51.462;12.630;2023-12-04T09:16:36;8.38;;;6.57;;
16228;SDS011;8222;51.462;12.630;2023-12-04T09:19:09;7.30;;;6.57;;
16228;SDS011;8222;51.462;12.630;2023-12-04T09:21:35;8.27;;;6.85;;
16228;SDS011;8222;51.462;12.630;2023-12-04T09:24:03;6.53;;;5.80;;
16228;SDS011;8222;51.462;12.630;2023-12-04T09:26:29;8.43;;;6.13;;
16228;SDS011;8222;51.462;12.630;2023-12-04T09:28:59;7.18;;;6.25;;
16228;SDS011;8222;51.462;12.630;2023-12-04T09:31:27;9.45;;;6.70;;
16228;SDS011;8222;51.462;12.630;2023-12-04T09:33:52;7.60;;;5.60;;
16228;SDS011;8222;51.462;12.630;2023-12-04T09:36:20;8.55;;;6.97;;
16228;SDS011;8222;51.462;12.630;2023-12-04T09:38:48;11.13;;;9.43;;
16228;SDS011;8222;51.462;12.630;2023-12-04T09:41:14;9.88;;;7.72;;
16228;SDS011;8222;51.462;12.630;2023-12-04T09:43:43;8.52;;;7.05;;
16228;SDS011;8222;51.462;12.630;2023-12-04T09:46:12;8.83;;;5.47;;
16228;SDS011;8222;51.462;12.630;2023-12-04T09:48:40;8.10;;;6.85;;
16228;SDS011;8222;51.462;12.630;2023-12-04T09:51:11;7.67;;;5.53;;
16228;SDS011;8222;51.462;12.630;2023-12-04T09:53:43;8.18;;;6.90;;
16228;SDS011;8222;51.462;12.630;2023-12-04T09:56:18;6.80;;;5.20;;
16228;SDS011;8222;51.462;12.630;2023-12-04T09:58:44;9.43;;;7.47;;
16228;SDS011;8222;51.462;12.630;2023-12-04T10:01:14;9.85;;;6.50;;
16228;SDS011;8222;51.462;12.630;2023-12-04T10:03:40;7.55;;;6.47;;
16228;SDS011;8222;51.462;12.630;2023-12-04T10:06:07;8.05;;;7.25;;
16228;SDS011;8222;51.462;12.630;2023-12-04T10:08:33;7.67;;;5.17;;
16228;SDS011;8222;51.462;12.630;2023-12-04T10:10:59;7.80;;;5.23;;
16228;SDS011;8222;51.462;12.630;2023-12-04T10:13:26;8.45;;;6.93;;
16228;SDS011;8222;51.462;12.630;2023-12-04T10:15:52;8.50;;;6.65;;
16228;SDS011;8222;51.462;12.630;2023-12-04T10:18:25;7.83;;;6.43;;
16228;SDS011;8222;51.462;12.630;2023-12-04T10:20:55;8.30;;;6.07;;
16228;SDS011;8222;51.462;12.630;2023-12-04T10:23:41;7.07;;;5.90;;
16228;SDS011;8222;51.462;12.630;2023-12-04T10:26:07;8.30;;;6.72;;
16228;SDS011;8222;51.462;12.630;2023-12-04T10:28:34;6.70;;;5.87;;
16228;SDS011;8222;51.462;12.630;2023-12-04T10:31:00;8.27;;;6.15;;
16228;SDS011;8222;51.462;12.630;2023-12-04T10:33:32;9.50;;;6.37;;
16228;SDS011;8222;51.462;12.630;2023-12-04T10:36:00;6.60;;;5.93;;
16228;SDS011;8222;51.462;12.630;2023-12-04T10:38:27;10.10;;;7.93;;
16228;SDS011;8222;51.462;12.630;2023-12-04T10:40:55;10.73;;;8.30;;
16228;SDS011;8222;51.462;12.630;2023-12-04T10:43:21;8.05;;;7.22;;
16228;SDS011;8222;51.462;12.630;2023-12-04T10:45:49;9.73;;;7.72;;
16228;SDS011;8222;51.462;12.630;2023-12-04T10:48:19;10.75;;;8.50;;
16228;SDS011;8222;51.462;12.630;2023-12-04T10:50:46;10.00;;;8.20;;
16228;SDS011;8222;51.462;12.630;2023-12-04T10:53:14;10.07;;;7.93;;
16228;SDS011;8222;51.462;12.630;2023-12-04T10:55:41;8.98;;;7.85;;
16228;SDS011;8222;51.462;12.630;2023-12-04T10:58:08;12.27;;;8.27;;
16228;SDS011;8222;51.462;12.630;2023-12-04T11:00:38;9.93;;;8.13;;
16228;SDS011;8222;51.462;12.630;2023-12-04T11:03:09;8.88;;;7.25;;
16228;SDS011;8222;51.462;12.630;2023-12-04T11:05:38;10.55;;;8.00;;
16228;SDS011;8222;51.462;12.630;2023-12-04T11:08:09;10.03;;;6.37;;
16228;SDS011;8222;51.462;12.630;2023-12-04T11:10:45;11.23;;;8.40;;
16228;SDS011;8222;51.462;12.630;2023-12-04T11:13:39;9.25;;;7.57;;
16228;SDS011;8222;51.462;12.630;2023-12-04T11:19:01;11.40;;;7.53;;
16228;SDS011;8222;51.462;12.630;2023-12-04T11:21:34;9.13;;;7.57;;
16228;SDS011;8222;51.462;12.630;2023-12-04T11:24:01;11.00;;;7.88;;
16228;SDS011;8222;51.462;12.630;2023-12-04T11:26:28;44.72;;;32.22;;
16228;SDS011;8222;51.462;12.630;2023-12-04T11:28:54;13.90;;;9.30;;
16228;SDS011;8222;51.462;12.630;2023-12-04T11:31:20;8.27;;;7.40;;
16228;SDS011;8222;51.462;12.630;2023-12-04T11:33:47;8.83;;;6.37;;
16228;SDS011;8222;51.462;12.630;2023-12-04T11:36:14;11.10;;;6.63;;
16228;SDS011;8222;51.462;12.630;2023-12-04T11:38:46;8.70;;;5.60;;
16228;SDS011;8222;51.462;12.630;2023-12-04T11:43:54;7.60;;;5.57;;
16228;SDS011;8222;51.462;12.630;2023-12-04T11:46:21;6.33;;;4.93;;
16228;SDS011;8222;51.462;12.630;2023-12-04T11:48:48;12.63;;;9.07;;
16228;SDS011;8222;51.462;12.630;2023-12-04T11:54:17;12.85;;;10.07;;
16228;SDS011;8222;51.462;12.630;2023-12-04T11:59:41;8.30;;;6.50;;
16228;SDS011;8222;51.462;12.630;2023-12-04T12:02:10;6.67;;;5.73;;
16228;SDS011;8222;51.462;12.630;2023-12-04T12:04:39;8.33;;;6.07;;
16228;SDS011;8222;51.462;12.630;2023-12-04T12:07:05;6.93;;;4.90;;
16228;SDS011;8222;51.462;12.630;2023-12-04T12:09:32;6.60;;;5.60;;
16228;SDS011;8222;51.462;12.630;2023-12-04T12:12:02;7.13;;;6.43;;
16228;SDS011;8222;51.462;12.630;2023-12-04T12:14:29;8.50;;;5.70;;
16228;SDS011;8222;51.462;12.630;2023-12-04T12:16:58;6.80;;;6.20;;
16228;SDS011;8222;51.462;12.630;2023-12-04T12:19:26;6.40;;;4.83;;
16228;SDS011;8222;51.462;12.630;2023-12-04T12:21:53;8.65;;;6.35;;
16228;SDS011;8222;51.462;12.630;2023-12-04T12:24:19;7.40;;;5.70;;
16228;SDS011;8222;51.462;12.630;2023-12-04T12:26:51;6.82;;;5.50;;
16228;SDS011;8222;51.462;12.630;2023-12-04T12:29:20;9.32;;;6.00;;
16228;SDS011;8222;51.462;12.630;2023-12-04T12:31:46;6.70;;;5.90;;
16228;SDS011;8222;51.462;12.630;2023-12-04T12:34:17;6.07;;;4.73;;
16228;SDS011;8222;51.462;12.630;2023-12-04T12:36:42;6.95;;;5.30;;
16228;SDS011;8222;51.462;12.630;2023-12-04T12:39:13;8.00;;;5.88;;
16228;SDS011;8222;51.462;12.630;2023-12-04T12:41:45;6.00;;;5.40;;
16228;SDS011;8222;51.462;12.630;2023-12-04T12:44:13;7.50;;;5.70;;
16228;SDS011;8222;51.462;12.630;2023-12-04T12:46:40;7.80;;;5.88;;
16228;SDS011;8222;51.462;12.630;2023-12-04T12:49:08;7.65;;;5.80;;
16228;SDS011;8222;51.462;12.630;2023-12-04T12:51:36;6.47;;;4.67;;
16228;SDS011;8222;51.462;12.630;2023-12-04T12:54:01;6.23;;;4.93;;
16228;SDS011;8222;51.462;12.630;2023-12-04T12:56:29;8.05;;;5.65;;
16228;SDS011;8222;51.462;12.630;2023-12-04T12:58:56;7.57;;;5.97;;
16228;SDS011;8222;51.462;12.630;2023-12-04T13:01:22;6.97;;;5.33;;
16228;SDS011;8222;51.462;12.630;2023-12-04T13:03:53;6.27;;;5.63;;
16228;SDS011;8222;51.462;12.630;2023-12-04T13:06:25;20.73;;;15.13;;
16228;SDS011;8222;51.462;12.630;2023-12-04T13:08:51;8.20;;;7.33;;
16228;SDS011;8222;51.462;12.630;2023-12-04T13:11:17;7.30;;;5.97;;
16228;SDS011;8222;51.462;12.630;2023-12-04T13:13:43;8.32;;;6.55;;
16228;SDS011;8222;51.462;12.630;2023-12-04T13:16:14;7.13;;;4.70;;
16228;SDS011;8222;51.462;12.630;2023-12-04T13:18:41;7.72;;;6.20;;
16228;SDS011;8222;51.462;12.630;2023-12-04T13:21:10;7.90;;;5.57;;
16228;SDS011;8222;51.462;12.630;2023-12-04T13:23:36;8.70;;;6.60;;
16228;SDS011;8222;51.462;12.630;2023-12-04T13:26:04;7.90;;;6.80;;
16228;SDS011;8222;51.462;12.630;2023-12-04T13:28:30;6.17;;;4.87;;
16228;SDS011;8222;51.462;12.630;2023-12-04T13:30:56;8.65;;;6.25;;
16228;SDS011;8222;51.462;12.630;2023-12-04T13:33:24;7.37;;;5.70;;
16228;SDS011;8222;51.462;12.630;2023-12-04T13:35:51;7.10;;;5.80;;
16228;SDS011;8222;51.462;12.630;2023-12-04T13:38:16;8.30;;;6.57;;
16228;SDS011;8222;51.462;12.630;2023-12-04T13:40:44;9.32;;;6.97;;
16228;SDS011;8222;51.462;12.630;2023-12-04T13:43:24;8.75;;;6.75;;
16228;SDS011;8222;51.462;12.630;2023-12-04T13:46:11;9.30;;;6.72;;
16228;SDS011;8222;51.462;12.630;2023-12-04T13:48:42;8.97;;;6.57;;
16228;SDS011;8222;51.462;12.630;2023-12-04T13:51:12;14.77;;;9.53;;
16228;SDS011;8222;51.462;12.630;2023-12-04T13:53:38;23.63;;;17.15;;
16228;SDS011;8222;51.462;12.630;2023-12-04T13:56:09;12.47;;;9.00;;
16228;SDS011;8222;51.462;12.630;2023-12-04T13:58:47;11.20;;;8.50;;
16228;SDS011;8222;51.462;12.630;2023-12-04T14:01:25;11.05;;;8.32;;
16228;SDS011;8222;51.462;12.630;2023-12-04T14:03:56;18.20;;;14.63;;
16228;SDS011;8222;51.462;12.630;2023-12-04T14:06:27;10.53;;;8.07;;
16228;SDS011;8222;51.462;12.630;2023-12-04T14:08:58;9.27;;;6.50;;
16228;SDS011;8222;51.462;12.630;2023-12-04T14:11:27;9.63;;;7.87;;
16228;SDS011;8222;51.462;12.630;2023-12-04T14:13:53;10.90;;;8.73;;
16228;SDS011;8222;51.462;12.630;2023-12-04T14:16:23;10.87;;;7.90;;
16228;SDS011;8222;51.462;12.630;2023-12-04T14:18:49;10.00;;;8.10;;
16228;SDS011;8222;51.462;12.630;2023-12-04T14:21:19;10.95;;;8.98;;
16228;SDS011;8222;51.462;12.630;2023-12-04T14:23:45;8.23;;;7.37;;
16228;SDS011;8222;51.462;12.630;2023-12-04T14:26:10;10.30;;;6.88;;
16228;SDS011;8222;51.462;12.630;2023-12-04T14:28:36;8.93;;;7.70;;
16228;SDS011;8222;51.462;12.630;2023-12-04T14:31:05;8.23;;;6.40;;
16228;SDS011;8222;51.462;12.630;2023-12-04T14:33:32;6.80;;;5.70;;
16228;SDS011;8222;51.462;12.630;2023-12-04T14:35:58;8.80;;;5.97;;
16228;SDS011;8222;51.462;12.630;2023-12-04T14:38:26;8.53;;;5.10;;
16228;SDS011;8222;51.462;12.630;2023-12-04T14:40:54;9.68;;;7.75;;
16228;SDS011;8222;51.462;12.630;2023-12-04T14:43:20;9.80;;;7.47;;
16228;SDS011;8222;51.462;12.630;2023-12-04T14:45:48;10.70;;;7.30;;
16228;SDS011;8222;51.462;12.630;2023-12-04T14:48:14;9.03;;;7.80;;
16228;SDS011;8222;51.462;12.630;2023-12-04T14:50:39;10.68;;;8.50;;